createdAt,value
2019-03-20T00:02:10.857Z,8.83
2019-03-20T00:04:49.635Z,8.07
2019-03-20T00:07:14.903Z,7.93
2019-03-20T00:09:45.283Z,8.13
2019-03-20T00:12:16.544Z,6.60
2019-03-20T00:14:47.103Z,6.33
2019-03-20T00:17:17.347Z,6.43
2019-03-20T00:19:47.404Z,6.47
2019-03-20T00:22:17.263Z,6.13
2019-03-20T00:24:48.335Z,6.30
2019-03-20T00:27:18.955Z,6.37
2019-03-20T00:29:49.075Z,5.97
2019-03-20T00:32:19.175Z,6.43
2019-03-20T00:35:00.319Z,6.00
2019-03-20T00:37:21.535Z,6.53
2019-03-20T00:39:52.654Z,6.20
2019-03-20T00:42:22.615Z,5.80
2019-03-20T00:44:52.335Z,5.83
2019-03-20T00:47:22.515Z,6.20
2019-03-20T00:49:52.355Z,6.80
2019-03-20T00:52:23.296Z,6.20
2019-03-20T00:54:53.255Z,6.03
2019-03-20T00:57:23.915Z,5.77
2019-03-20T00:59:53.935Z,5.80
2019-03-20T01:02:25.099Z,5.23
2019-03-20T01:04:55.358Z,5.17
2019-03-20T01:07:25.920Z,5.13
2019-03-20T01:09:56.375Z,6.00
2019-03-20T01:12:26.435Z,5.30
2019-03-20T01:14:56.796Z,5.50
2019-03-20T01:17:26.755Z,5.10
2019-03-20T01:19:56.435Z,5.53
2019-03-20T01:22:25.796Z,5.03
2019-03-20T01:24:55.335Z,5.60
2019-03-20T01:27:25.943Z,5.80
2019-03-20T01:29:55.774Z,5.47
2019-03-20T01:32:25.176Z,5.40
2019-03-20T01:34:54.436Z,5.50
2019-03-20T01:37:24.058Z,4.87
2019-03-20T01:39:55.719Z,5.17
2019-03-20T01:42:25.296Z,4.93
2019-03-20T01:44:57.593Z,5.33
2019-03-20T01:47:27.055Z,4.63
2019-03-20T01:50:13.115Z,5.30
2019-03-20T01:52:42.777Z,4.30
2019-03-20T01:55:12.915Z,5.03
2019-03-20T01:57:42.796Z,4.90
2019-03-20T02:00:14.085Z,4.63
2019-03-20T02:02:43.764Z,4.00
2019-03-20T02:05:13.355Z,3.90
2019-03-20T02:07:43.076Z,4.13
2019-03-20T02:10:14.695Z,3.83
2019-03-20T02:12:44.115Z,4.17
2019-03-20T02:15:18.335Z,4.30
2019-03-20T02:17:48.115Z,4.30
2019-03-20T02:20:19.778Z,4.30
2019-03-20T02:22:49.835Z,3.80
2019-03-20T02:25:19.580Z,4.20
2019-03-20T02:27:48.955Z,3.90
2019-03-20T02:30:21.777Z,3.90
2019-03-20T02:32:51.717Z,4.10
2019-03-20T02:35:21.480Z,4.00
2019-03-20T02:37:51.481Z,3.97
2019-03-20T02:40:21.407Z,3.77
2019-03-20T02:42:51.196Z,3.67
2019-03-20T02:45:21.019Z,3.90
2019-03-20T02:47:51.162Z,3.80
2019-03-20T02:50:20.755Z,3.83
2019-03-20T02:52:50.215Z,4.20
2019-03-20T02:55:20.437Z,4.00
2019-03-20T02:57:49.959Z,3.77
2019-03-20T03:00:20.493Z,3.83
2019-03-20T03:02:50.280Z,3.60
2019-03-20T03:05:20.618Z,3.60
2019-03-20T03:07:50.224Z,3.33
2019-03-20T03:10:26.435Z,3.47
2019-03-20T03:12:56.298Z,4.27
2019-03-20T03:15:28.218Z,3.27
2019-03-20T03:17:57.717Z,3.20
2019-03-20T03:20:27.584Z,2.80
2019-03-20T03:22:58.036Z,3.60
2019-03-20T03:25:27.696Z,3.10
2019-03-20T03:27:57.395Z,2.90
2019-03-20T03:30:26.737Z,2.90
2019-03-20T03:32:56.176Z,3.10
2019-03-20T03:35:25.936Z,3.00
2019-03-20T03:37:55.814Z,3.00
2019-03-20T03:40:25.296Z,3.50
2019-03-20T03:42:54.523Z,3.13
2019-03-20T03:45:25.536Z,3.53
2019-03-20T03:47:55.155Z,3.17
2019-03-20T03:50:24.937Z,3.33
2019-03-20T03:52:54.378Z,3.07
2019-03-20T03:55:24.357Z,3.50
2019-03-20T03:57:54.587Z,3.03
2019-03-20T04:00:26.326Z,3.30
2019-03-20T04:02:55.957Z,3.20
2019-03-20T04:05:26.024Z,3.40
2019-03-20T04:07:56.255Z,3.17
2019-03-20T04:10:26.195Z,3.40
2019-03-20T04:12:55.655Z,3.17
2019-03-20T04:15:25.539Z,3.10
2019-03-20T04:17:55.136Z,3.27
2019-03-20T04:20:25.017Z,3.50
2019-03-20T04:22:54.757Z,2.97
2019-03-20T04:25:24.515Z,3.47
2019-03-20T04:27:55.777Z,3.03
2019-03-20T04:30:29.124Z,3.47
2019-03-20T04:32:59.085Z,3.60
2019-03-20T04:35:29.398Z,3.67
2019-03-20T04:37:59.477Z,2.73
2019-03-20T04:40:29.437Z,3.13
2019-03-20T04:42:58.839Z,3.47
2019-03-20T04:45:28.895Z,3.87
2019-03-20T04:47:59.336Z,3.23
2019-03-20T04:50:29.256Z,3.50
2019-03-20T04:53:11.678Z,3.50
2019-03-20T04:55:41.275Z,3.00
2019-03-20T04:58:12.536Z,3.77
2019-03-20T05:00:42.958Z,3.40
2019-03-20T05:03:12.935Z,3.10
2019-03-20T05:05:42.255Z,3.00
2019-03-20T05:08:12.157Z,3.10
2019-03-20T05:10:42.276Z,2.90
2019-03-20T05:13:12.216Z,2.90
2019-03-20T05:15:42.435Z,4.20
2019-03-20T05:18:12.455Z,3.40
2019-03-20T05:20:41.936Z,3.63
2019-03-20T05:23:11.334Z,3.70
2019-03-20T05:25:41.356Z,2.70
2019-03-20T05:28:11.475Z,3.30
2019-03-20T05:30:41.716Z,3.60
2019-03-20T05:33:12.195Z,3.17
2019-03-20T05:35:41.875Z,2.87
2019-03-20T05:38:13.616Z,2.87
2019-03-20T05:40:45.757Z,3.00
2019-03-20T05:43:15.677Z,2.80
2019-03-20T05:45:45.095Z,3.10
2019-03-20T05:48:15.176Z,3.07
2019-03-20T05:50:47.857Z,2.93
2019-03-20T05:53:17.584Z,3.63
2019-03-20T05:55:47.835Z,2.83
2019-03-20T05:58:17.595Z,2.90
2019-03-20T06:00:47.638Z,2.70
2019-03-20T06:03:18.804Z,2.53
2019-03-20T06:05:48.272Z,2.80
2019-03-20T06:08:17.905Z,2.50
2019-03-20T06:10:47.369Z,2.37
2019-03-20T06:13:19.327Z,2.80
2019-03-20T06:15:49.808Z,2.47
2019-03-20T06:18:19.529Z,2.37
2019-03-20T06:20:55.948Z,2.67
2019-03-20T06:23:25.455Z,2.63
2019-03-20T06:25:54.598Z,2.60
2019-03-20T06:28:30.338Z,2.73
2019-03-20T06:30:59.558Z,2.70
2019-03-20T06:33:29.236Z,3.03
2019-03-20T06:35:58.357Z,3.47
2019-03-20T06:38:28.176Z,3.20
2019-03-20T06:40:57.743Z,2.87
2019-03-20T06:43:26.744Z,3.00
2019-03-20T06:45:56.142Z,3.30
2019-03-20T06:48:25.493Z,2.50
2019-03-20T06:50:54.701Z,3.10
2019-03-20T06:53:23.911Z,3.20
2019-03-20T06:55:53.366Z,2.53
2019-03-20T06:58:23.145Z,2.93
2019-03-20T07:01:01.464Z,2.70
2019-03-20T07:03:57.851Z,2.53
2019-03-20T07:06:48.464Z,2.90
2019-03-20T07:09:38.650Z,2.20
2019-03-20T07:12:08.698Z,2.30
2019-03-20T07:14:40.744Z,2.30
2019-03-20T07:17:10.296Z,2.27
2019-03-20T07:20:06.596Z,2.13
2019-03-20T07:22:35.897Z,2.30
2019-03-20T07:25:07.856Z,2.43
2019-03-20T07:27:37.256Z,2.33
2019-03-20T07:30:09.375Z,2.03
2019-03-20T07:32:38.955Z,2.50
2019-03-20T07:35:08.431Z,2.10
2019-03-20T07:37:39.357Z,2.40
2019-03-20T07:40:10.197Z,2.40
2019-03-20T07:42:39.735Z,2.60
2019-03-20T07:45:10.676Z,3.13
2019-03-20T07:47:39.815Z,2.50
2019-03-20T07:50:09.517Z,2.40
2019-03-20T07:52:38.795Z,2.93
2019-03-20T07:55:08.061Z,2.30
2019-03-20T07:57:37.415Z,3.13
2019-03-20T08:00:09.667Z,2.57
2019-03-20T08:02:38.900Z,1.97
2019-03-20T08:05:12.660Z,2.40
2019-03-20T08:07:42.027Z,2.33
2019-03-20T08:10:16.598Z,2.63
2019-03-20T08:12:48.380Z,2.67
2019-03-20T08:15:18.979Z,2.50
2019-03-20T08:17:48.115Z,2.63
2019-03-20T08:20:25.877Z,2.07
2019-03-20T08:22:55.475Z,2.77
2019-03-20T08:25:25.175Z,2.93
2019-03-20T08:27:54.465Z,2.70
2019-03-20T08:30:23.815Z,3.00
2019-03-20T08:32:53.795Z,2.73
2019-03-20T08:35:23.200Z,2.30
2019-03-20T08:37:52.595Z,2.60
2019-03-20T08:40:24.923Z,2.77
2019-03-20T08:45:41.115Z,3.00
2019-03-20T08:48:24.141Z,2.60
2019-03-20T08:50:53.318Z,2.83
2019-03-20T08:53:22.637Z,3.10
2019-03-20T08:55:56.150Z,2.63
2019-03-20T08:58:25.781Z,2.80
2019-03-20T09:00:58.333Z,2.80
2019-03-20T09:03:28.311Z,2.50
2019-03-20T09:05:57.985Z,2.70
2019-03-20T09:08:29.669Z,2.93
2019-03-20T09:10:59.837Z,2.63
2019-03-20T09:13:29.832Z,2.30
2019-03-20T09:16:00.059Z,2.60
2019-03-20T09:18:29.810Z,2.30
2019-03-20T09:20:59.771Z,2.40
2019-03-20T09:23:29.221Z,2.47
2019-03-20T09:25:59.091Z,2.37
2019-03-20T09:28:28.158Z,2.33
2019-03-20T09:30:57.360Z,2.00
2019-03-20T09:33:26.519Z,2.07
2019-03-20T09:35:56.019Z,2.30
2019-03-20T09:38:25.900Z,2.03
2019-03-20T09:40:55.463Z,2.43
2019-03-20T09:43:27.760Z,2.83
2019-03-20T09:45:57.501Z,2.90
2019-03-20T09:48:28.118Z,2.40
2019-03-20T09:50:57.344Z,2.50
2019-03-20T09:53:26.935Z,2.40
2019-03-20T09:55:56.636Z,2.20
2019-03-20T09:58:26.035Z,2.27
2019-03-20T10:00:55.083Z,2.57
2019-03-20T10:03:27.543Z,1.97
2019-03-20T10:05:56.917Z,2.27
2019-03-20T10:08:26.567Z,2.30
2019-03-20T10:10:58.311Z,2.63
2019-03-20T10:13:27.590Z,2.60
2019-03-20T10:15:58.212Z,2.30
2019-03-20T10:18:27.649Z,2.30
2019-03-20T10:20:56.995Z,2.30
2019-03-20T10:23:27.042Z,2.83
2019-03-20T10:25:56.634Z,2.30
2019-03-20T10:28:26.615Z,2.10
2019-03-20T10:30:56.235Z,2.37
2019-03-20T10:33:25.446Z,2.30
2019-03-20T10:35:54.755Z,2.20
2019-03-20T10:38:24.036Z,2.47
2019-03-20T10:40:53.335Z,2.33
2019-03-20T10:43:22.835Z,2.40
2019-03-20T10:45:52.024Z,1.83
2019-03-20T10:48:21.446Z,2.60
2019-03-20T10:50:51.047Z,2.07
2019-03-20T10:53:20.550Z,2.60
2019-03-20T10:55:51.778Z,2.60
2019-03-20T10:58:20.581Z,2.13
2019-03-20T11:00:49.882Z,2.57
2019-03-20T11:03:18.962Z,2.40
2019-03-20T11:05:48.885Z,2.70
2019-03-20T11:08:23.321Z,2.20
2019-03-20T11:10:52.979Z,2.50
2019-03-20T11:13:22.715Z,2.70
2019-03-20T11:15:52.059Z,2.13
2019-03-20T11:18:21.310Z,2.60
2019-03-20T11:20:53.524Z,2.83
2019-03-20T11:23:22.248Z,2.57
2019-03-20T11:25:53.258Z,2.53
2019-03-20T11:28:23.218Z,2.60
2019-03-20T11:30:52.636Z,2.07
2019-03-20T11:33:29.277Z,2.60
2019-03-20T11:35:58.644Z,2.20
2019-03-20T11:38:28.217Z,2.77
2019-03-20T11:41:00.299Z,2.20
2019-03-20T11:43:29.627Z,2.20
2019-03-20T11:45:59.963Z,2.57
2019-03-20T11:48:29.446Z,2.57
2019-03-20T11:50:59.297Z,2.70
2019-03-20T11:53:28.925Z,2.33
2019-03-20T11:55:59.097Z,2.30
2019-03-20T11:58:28.759Z,2.23
2019-03-20T12:00:58.524Z,2.70
2019-03-20T12:03:29.185Z,2.67
2019-03-20T12:06:00.192Z,2.47
2019-03-20T12:08:34.383Z,2.97
2019-03-20T12:11:04.923Z,2.37
2019-03-20T12:13:34.442Z,2.67
2019-03-20T12:16:05.239Z,2.70
2019-03-20T12:18:36.035Z,2.60
2019-03-20T12:21:06.175Z,2.50
2019-03-20T12:23:36.728Z,2.60
2019-03-20T12:26:07.019Z,2.10
2019-03-20T12:28:36.877Z,2.73
2019-03-20T12:31:09.128Z,2.70
2019-03-20T12:33:38.581Z,3.03
2019-03-20T12:36:08.337Z,2.30
2019-03-20T12:38:38.897Z,2.80
2019-03-20T12:41:09.198Z,2.47
2019-03-20T12:43:39.941Z,2.33
2019-03-20T12:46:11.916Z,2.63
2019-03-20T12:48:41.878Z,1.83
2019-03-20T12:51:11.876Z,2.00
2019-03-20T12:53:41.675Z,1.60
2019-03-20T12:56:11.575Z,2.70
2019-03-20T12:58:41.258Z,2.40
2019-03-20T13:01:12.560Z,2.20
2019-03-20T13:03:41.919Z,2.33
2019-03-20T13:06:11.844Z,2.50
2019-03-20T13:08:41.875Z,2.43
2019-03-20T13:11:11.735Z,2.60
2019-03-20T13:13:41.782Z,2.77
2019-03-20T13:16:11.242Z,2.60
2019-03-20T13:18:40.576Z,2.80
2019-03-20T13:21:10.619Z,2.80
2019-03-20T13:23:40.216Z,2.60
2019-03-20T13:26:09.777Z,2.70
2019-03-20T13:28:39.597Z,2.80
2019-03-20T13:31:14.518Z,2.70
2019-03-20T13:33:44.597Z,2.67
2019-03-20T13:36:14.396Z,2.30
2019-03-20T13:38:44.477Z,3.07
2019-03-20T13:41:18.001Z,2.60
2019-03-20T13:43:48.877Z,2.13
2019-03-20T13:46:19.002Z,2.40
2019-03-20T13:48:50.535Z,2.40
2019-03-20T13:51:20.599Z,2.60
2019-03-20T13:53:50.820Z,2.30
2019-03-20T13:56:21.099Z,2.47
2019-03-20T13:58:52.363Z,2.90
2019-03-20T14:01:22.983Z,2.90
2019-03-20T14:03:53.291Z,2.80
2019-03-20T14:06:23.180Z,3.43
2019-03-20T14:08:53.908Z,3.40
2019-03-20T14:11:23.805Z,3.17
2019-03-20T14:13:53.398Z,2.87
2019-03-20T14:16:23.499Z,3.10
2019-03-20T14:18:53.098Z,3.37
2019-03-20T14:21:22.875Z,2.97
2019-03-20T14:23:53.041Z,2.87
2019-03-20T14:26:22.678Z,2.17
2019-03-20T14:28:52.584Z,2.80
2019-03-20T14:31:22.171Z,2.43
2019-03-20T14:33:51.603Z,2.63
2019-03-20T14:36:21.436Z,2.93
2019-03-20T14:38:51.336Z,2.50
2019-03-20T14:41:21.881Z,3.43
2019-03-20T14:43:51.636Z,3.40
2019-03-20T14:46:21.176Z,3.50
2019-03-20T14:48:50.851Z,3.23
2019-03-20T14:51:20.661Z,3.40
2019-03-20T14:53:50.324Z,3.23
2019-03-20T14:56:20.156Z,4.03
2019-03-20T14:58:49.461Z,3.00
2019-03-20T15:01:19.276Z,3.43
2019-03-20T15:03:49.020Z,4.10
2019-03-20T15:06:20.316Z,3.30
2019-03-20T15:08:53.002Z,4.33
2019-03-20T15:11:23.759Z,2.83
2019-03-20T15:13:56.639Z,3.27
2019-03-20T15:16:26.838Z,3.63
2019-03-20T15:18:59.963Z,3.17
2019-03-20T15:21:29.866Z,3.60
2019-03-20T15:24:10.081Z,3.37
2019-03-20T15:26:40.337Z,2.80
2019-03-20T15:29:15.380Z,3.57
2019-03-20T15:32:05.981Z,3.53
2019-03-20T15:34:41.924Z,3.10
2019-03-20T15:37:13.703Z,3.17
2019-03-20T15:39:48.063Z,3.40
2019-03-20T15:42:18.820Z,3.50
2019-03-20T15:44:49.473Z,3.33
2019-03-20T15:47:20.366Z,3.30
2019-03-20T15:49:51.679Z,3.73
2019-03-20T15:52:22.542Z,3.23
2019-03-20T15:54:52.669Z,3.10
2019-03-20T15:57:23.139Z,3.50
2019-03-20T15:59:52.881Z,3.53
2019-03-20T16:02:23.577Z,3.00
2019-03-20T16:04:55.643Z,3.47
2019-03-20T16:07:26.476Z,3.20
2019-03-20T16:09:57.075Z,3.20
2019-03-20T16:12:27.758Z,3.60
2019-03-20T16:14:59.561Z,3.20
2019-03-20T16:17:31.589Z,3.30
2019-03-20T16:20:05.647Z,4.03
2019-03-20T16:22:37.247Z,3.10
2019-03-20T16:25:23.940Z,3.40
2019-03-20T16:28:02.760Z,3.03
2019-03-20T16:30:43.521Z,3.43
2019-03-20T16:33:20.061Z,3.53
2019-03-20T16:35:52.864Z,3.17
2019-03-20T16:38:27.477Z,3.30
2019-03-20T16:40:57.458Z,3.33
2019-03-20T16:43:27.442Z,3.33
2019-03-20T16:45:58.699Z,3.43
2019-03-20T16:48:28.057Z,3.10
2019-03-20T16:50:58.602Z,3.63
2019-03-20T16:53:30.160Z,2.80
2019-03-20T16:56:02.757Z,3.30
2019-03-20T16:58:34.000Z,3.10
2019-03-20T17:01:07.520Z,3.30
2019-03-20T17:03:57.367Z,3.17
2019-03-20T17:06:31.520Z,3.97
2019-03-20T17:09:02.341Z,4.10
2019-03-20T17:11:39.219Z,3.80
2019-03-20T17:14:09.539Z,3.73
2019-03-20T17:16:42.836Z,4.07
2019-03-20T17:19:11.459Z,3.93
2019-03-20T17:21:43.560Z,4.87
2019-03-20T17:24:13.961Z,4.37
2019-03-20T17:26:44.179Z,4.80
2019-03-20T17:29:13.766Z,5.03
2019-03-20T17:31:43.559Z,6.20
2019-03-20T17:34:13.819Z,5.83
2019-03-20T17:36:44.789Z,6.07
2019-03-20T17:39:15.213Z,5.10
2019-03-20T17:41:49.100Z,4.10
2019-03-20T17:44:19.020Z,4.77
2019-03-20T17:46:49.339Z,4.63
2019-03-20T17:49:20.021Z,4.43
2019-03-20T17:51:49.979Z,4.03
2019-03-20T17:54:20.139Z,4.20
2019-03-20T17:56:54.421Z,3.90
2019-03-20T17:59:25.565Z,3.80
2019-03-20T18:01:55.434Z,4.17
2019-03-20T18:04:25.237Z,3.50
2019-03-20T18:06:55.257Z,4.07
2019-03-20T18:09:24.625Z,3.50
2019-03-20T18:11:55.394Z,4.10
2019-03-20T18:14:25.010Z,4.03
2019-03-20T18:16:55.014Z,4.13
2019-03-20T18:19:26.979Z,4.00
2019-03-20T18:22:00.155Z,4.60
2019-03-20T18:24:47.536Z,5.00
2019-03-20T18:27:19.823Z,4.30
2019-03-20T18:29:52.456Z,5.50
2019-03-20T18:32:23.635Z,4.83
2019-03-20T18:34:56.155Z,4.70
2019-03-20T18:37:27.016Z,4.47
2019-03-20T18:39:58.495Z,4.80
2019-03-20T18:42:29.398Z,4.50
2019-03-20T18:44:59.333Z,4.20
2019-03-20T18:47:30.509Z,4.40
2019-03-20T18:49:59.851Z,4.43
2019-03-20T18:52:30.500Z,4.23
2019-03-20T18:55:01.083Z,4.20
2019-03-20T18:57:30.341Z,4.30
2019-03-20T18:59:59.743Z,4.13
2019-03-20T19:02:29.967Z,4.43
2019-03-20T19:05:00.406Z,4.90
2019-03-20T19:07:30.546Z,4.47
2019-03-20T19:10:02.014Z,4.83
2019-03-20T19:12:32.678Z,4.40
2019-03-20T19:15:02.613Z,4.40
2019-03-20T19:17:34.021Z,4.50
2019-03-20T19:20:04.761Z,4.80
2019-03-20T19:22:34.514Z,4.37
2019-03-20T19:25:06.262Z,4.63
2019-03-20T19:27:36.620Z,4.27
2019-03-20T19:30:16.099Z,4.60
2019-03-20T19:32:53.618Z,4.47
2019-03-20T19:35:25.117Z,4.63
2019-03-20T19:37:56.170Z,4.97
2019-03-20T19:40:26.701Z,5.23
2019-03-20T19:42:57.886Z,4.43
2019-03-20T19:45:33.401Z,4.87
2019-03-20T19:48:03.521Z,5.03
2019-03-20T19:50:33.124Z,4.93
2019-03-20T19:53:03.345Z,4.93
2019-03-20T19:55:33.583Z,5.50
2019-03-20T19:58:03.661Z,4.67
2019-03-20T20:00:33.849Z,5.00
2019-03-20T20:03:04.061Z,5.00
2019-03-20T20:05:34.379Z,5.00
2019-03-20T20:08:04.359Z,4.37
2019-03-20T20:10:36.026Z,5.47
2019-03-20T20:13:06.587Z,4.83
2019-03-20T20:15:37.830Z,4.83
2019-03-20T20:18:10.316Z,5.10
2019-03-20T20:20:42.094Z,5.97
2019-03-20T20:23:17.300Z,5.30
2019-03-20T20:25:50.974Z,4.70
2019-03-20T20:28:25.004Z,5.13
2019-03-20T20:30:57.139Z,5.37
2019-03-20T20:33:27.461Z,4.20
2019-03-20T20:35:57.644Z,4.83
2019-03-20T20:38:29.556Z,4.50
2019-03-20T20:41:02.383Z,4.80
2019-03-20T20:43:33.571Z,4.90
2019-03-20T20:46:03.811Z,5.90
2019-03-20T20:48:35.794Z,6.10
2019-03-20T20:51:13.393Z,4.97
2019-03-20T20:53:43.712Z,4.97
2019-03-20T20:56:13.490Z,4.90
2019-03-20T20:58:44.043Z,4.73
2019-03-20T21:01:14.490Z,5.20
2019-03-20T21:03:44.719Z,4.97
2019-03-20T21:06:16.059Z,4.80
2019-03-20T21:08:48.360Z,4.80
2019-03-20T21:11:17.939Z,5.00
2019-03-20T21:13:47.660Z,5.20
2019-03-20T21:16:18.139Z,4.90
2019-03-20T21:18:50.446Z,5.10
2019-03-20T21:21:20.227Z,7.30
2019-03-20T21:24:27.969Z,5.50
2019-03-20T21:27:09.079Z,5.63
2019-03-20T21:29:57.800Z,5.97
2019-03-20T21:32:30.262Z,6.30
2019-03-20T21:35:18.585Z,5.57
2019-03-20T21:38:06.026Z,5.93
2019-03-20T21:40:47.344Z,5.80
2019-03-20T21:43:39.022Z,5.67
2019-03-20T21:46:46.802Z,5.30
2019-03-20T21:49:20.162Z,5.20
2019-03-20T21:51:49.941Z,5.60
2019-03-20T21:54:34.139Z,5.67
2019-03-20T21:57:26.961Z,5.70
2019-03-20T22:00:22.959Z,5.70
2019-03-20T22:02:52.908Z,5.37
2019-03-20T22:05:43.968Z,5.83
2019-03-20T22:08:13.368Z,5.40
2019-03-20T22:11:01.029Z,5.73
2019-03-20T22:13:33.188Z,5.57
2019-03-20T22:16:08.075Z,5.53
2019-03-20T22:18:40.709Z,5.20
2019-03-20T22:21:19.380Z,5.37
2019-03-20T22:24:08.319Z,5.63
2019-03-20T22:27:12.046Z,5.93
2019-03-20T22:29:41.419Z,5.60
2019-03-20T22:32:34.000Z,5.50
2019-03-20T22:35:12.739Z,5.30
2019-03-20T22:37:42.079Z,5.33
2019-03-20T22:40:17.721Z,5.20
2019-03-20T22:43:02.067Z,5.80
2019-03-20T22:46:02.160Z,5.47
2019-03-20T22:48:43.653Z,5.27
2019-03-20T22:51:35.999Z,5.50
2019-03-20T22:54:24.902Z,5.23
2019-03-20T22:57:00.140Z,5.17
2019-03-20T22:59:30.639Z,5.87
2019-03-20T23:02:21.619Z,4.87
2019-03-20T23:04:57.898Z,5.57
2019-03-20T23:07:28.339Z,4.53
2019-03-20T23:09:57.979Z,5.33
2019-03-20T23:12:27.619Z,5.03
2019-03-20T23:14:57.299Z,5.13
2019-03-20T23:17:26.699Z,5.47
2019-03-20T23:19:56.540Z,5.07
2019-03-20T23:22:26.806Z,5.27
2019-03-20T23:24:56.619Z,5.47
2019-03-20T23:27:28.839Z,5.37
2019-03-20T23:29:59.603Z,5.13
2019-03-20T23:32:29.419Z,5.00
2019-03-20T23:34:58.859Z,5.43
2019-03-20T23:37:30.241Z,4.63
2019-03-20T23:40:02.781Z,5.47
2019-03-20T23:42:32.819Z,4.67
2019-03-20T23:45:02.680Z,4.57
2019-03-20T23:47:35.240Z,4.37
2019-03-20T23:50:09.560Z,4.83
2019-03-20T23:52:39.102Z,5.07
2019-03-20T23:55:11.563Z,5.03
2019-03-20T23:57:41.722Z,5.07
